sensor_id;sensor_type;location;lat;lon;timestamp;P1;durP1;ratioP1;P2;durP2;ratioP2
19127;SDS011;9696;53.686;10.094;2024-01-30T00:00:53;8.03;;;5.37;;
19127;SDS011;9696;53.686;10.094;2024-01-30T00:03:22;12.03;;;5.37;;
19127;SDS011;9696;53.686;10.094;2024-01-30T00:05:50;9.23;;;5.30;;
19127;SDS011;9696;53.686;10.094;2024-01-30T00:08:22;10.70;;;5.10;;
19127;SDS011;9696;53.686;10.094;2024-01-30T00:10:51;13.53;;;6.07;;
19127;SDS011;9696;53.686;10.094;2024-01-30T00:13:19;9.87;;;5.37;;
19127;SDS011;9696;53.686;10.094;2024-01-30T00:15:49;8.70;;;5.53;;
19127;SDS011;9696;53.686;10.094;2024-01-30T00:18:18;13.50;;;5.27;;
19127;SDS011;9696;53.686;10.094;2024-01-30T00:20:46;11.53;;;5.93;;
19127;SDS011;9696;53.686;10.094;2024-01-30T00:23:15;13.87;;;5.80;;
19127;SDS011;9696;53.686;10.094;2024-01-30T00:25:43;9.33;;;5.30;;
19127;SDS011;9696;53.686;10.094;2024-01-30T00:28:12;11.30;;;5.53;;
19127;SDS011;9696;53.686;10.094;2024-01-30T00:30:40;10.33;;;5.73;;
19127;SDS011;9696;53.686;10.094;2024-01-30T00:33:10;8.83;;;5.37;;
19127;SDS011;9696;53.686;10.094;2024-01-30T00:35:39;16.03;;;5.57;;
19127;SDS011;9696;53.686;10.094;2024-01-30T00:38:07;14.43;;;5.47;;
19127;SDS011;9696;53.686;10.094;2024-01-30T00:40:36;9.93;;;5.60;;
19127;SDS011;9696;53.686;10.094;2024-01-30T00:43:04;8.80;;;4.63;;
19127;SDS011;9696;53.686;10.094;2024-01-30T00:45:33;7.97;;;4.60;;
19127;SDS011;9696;53.686;10.094;2024-01-30T00:48:02;8.57;;;5.03;;
19127;SDS011;9696;53.686;10.094;2024-01-30T00:50:32;8.23;;;4.70;;
19127;SDS011;9696;53.686;10.094;2024-01-30T00:53:01;11.83;;;5.03;;
19127;SDS011;9696;53.686;10.094;2024-01-30T00:55:29;11.33;;;5.60;;
19127;SDS011;9696;53.686;10.094;2024-01-30T00:57:58;11.50;;;5.47;;
19127;SDS011;9696;53.686;10.094;2024-01-30T01:00:26;15.90;;;4.83;;
19127;SDS011;9696;53.686;10.094;2024-01-30T01:02:57;9.40;;;4.93;;
19127;SDS011;9696;53.686;10.094;2024-01-30T01:05:25;9.33;;;4.80;;
19127;SDS011;9696;53.686;10.094;2024-01-30T01:07:55;9.90;;;4.43;;
19127;SDS011;9696;53.686;10.094;2024-01-30T01:10:24;11.30;;;5.37;;
19127;SDS011;9696;53.686;10.094;2024-01-30T01:12:54;8.00;;;4.50;;
19127;SDS011;9696;53.686;10.094;2024-01-30T01:15:23;8.07;;;4.30;;
19127;SDS011;9696;53.686;10.094;2024-01-30T01:17:55;9.73;;;4.53;;
19127;SDS011;9696;53.686;10.094;2024-01-30T01:20:24;7.17;;;4.63;;
19127;SDS011;9696;53.686;10.094;2024-01-30T01:22:52;6.47;;;4.47;;
19127;SDS011;9696;53.686;10.094;2024-01-30T01:25:22;9.30;;;5.27;;
19127;SDS011;9696;53.686;10.094;2024-01-30T01:27:51;8.20;;;5.10;;
19127;SDS011;9696;53.686;10.094;2024-01-30T01:30:19;8.07;;;4.93;;
19127;SDS011;9696;53.686;10.094;2024-01-30T01:32:49;6.97;;;4.50;;
19127;SDS011;9696;53.686;10.094;2024-01-30T01:35:21;7.80;;;4.80;;
19127;SDS011;9696;53.686;10.094;2024-01-30T01:37:51;10.30;;;4.70;;
19127;SDS011;9696;53.686;10.094;2024-01-30T01:40:23;8.10;;;4.47;;
19127;SDS011;9696;53.686;10.094;2024-01-30T01:42:52;8.03;;;4.90;;
19127;SDS011;9696;53.686;10.094;2024-01-30T01:45:21;11.33;;;4.17;;
19127;SDS011;9696;53.686;10.094;2024-01-30T01:47:50;7.67;;;4.47;;
19127;SDS011;9696;53.686;10.094;2024-01-30T01:50:20;6.10;;;4.23;;
19127;SDS011;9696;53.686;10.094;2024-01-30T01:52:50;6.20;;;3.93;;
19127;SDS011;9696;53.686;10.094;2024-01-30T01:55:19;10.17;;;4.60;;
19127;SDS011;9696;53.686;10.094;2024-01-30T01:57:52;9.00;;;4.87;;
19127;SDS011;9696;53.686;10.094;2024-01-30T02:00:20;7.33;;;4.10;;
19127;SDS011;9696;53.686;10.094;2024-01-30T02:02:48;7.17;;;4.40;;
19127;SDS011;9696;53.686;10.094;2024-01-30T02:05:18;7.87;;;4.20;;
19127;SDS011;9696;53.686;10.094;2024-01-30T02:07:46;7.30;;;3.83;;
19127;SDS011;9696;53.686;10.094;2024-01-30T02:10:15;5.97;;;4.20;;
19127;SDS011;9696;53.686;10.094;2024-01-30T02:12:44;9.37;;;4.87;;
19127;SDS011;9696;53.686;10.094;2024-01-30T02:15:14;7.30;;;4.37;;
19127;SDS011;9696;53.686;10.094;2024-01-30T02:17:43;6.50;;;4.17;;
19127;SDS011;9696;53.686;10.094;2024-01-30T02:20:11;8.50;;;3.87;;
19127;SDS011;9696;53.686;10.094;2024-01-30T02:22:42;6.70;;;3.90;;
19127;SDS011;9696;53.686;10.094;2024-01-30T02:25:11;9.43;;;3.93;;
19127;SDS011;9696;53.686;10.094;2024-01-30T02:27:39;9.17;;;4.67;;
19127;SDS011;9696;53.686;10.094;2024-01-30T02:30:08;11.00;;;4.40;;
19127;SDS011;9696;53.686;10.094;2024-01-30T02:32:37;9.27;;;4.13;;
19127;SDS011;9696;53.686;10.094;2024-01-30T02:35:06;8.27;;;4.30;;
19127;SDS011;9696;53.686;10.094;2024-01-30T02:37:34;7.23;;;4.43;;
19127;SDS011;9696;53.686;10.094;2024-01-30T02:40:05;6.13;;;3.70;;
19127;SDS011;9696;53.686;10.094;2024-01-30T02:42:34;9.67;;;4.10;;
19127;SDS011;9696;53.686;10.094;2024-01-30T02:45:03;7.47;;;4.17;;
19127;SDS011;9696;53.686;10.094;2024-01-30T02:47:31;6.93;;;3.90;;
19127;SDS011;9696;53.686;10.094;2024-01-30T02:50:00;7.90;;;4.23;;
19127;SDS011;9696;53.686;10.094;2024-01-30T02:52:29;7.00;;;4.37;;
19127;SDS011;9696;53.686;10.094;2024-01-30T02:54:58;7.00;;;4.27;;
19127;SDS011;9696;53.686;10.094;2024-01-30T02:57:28;7.60;;;3.93;;
19127;SDS011;9696;53.686;10.094;2024-01-30T02:59:56;8.50;;;4.93;;
19127;SDS011;9696;53.686;10.094;2024-01-30T03:02:25;9.03;;;4.93;;
19127;SDS011;9696;53.686;10.094;2024-01-30T03:04:53;7.33;;;4.40;;
19127;SDS011;9696;53.686;10.094;2024-01-30T03:07:22;8.80;;;4.67;;
19127;SDS011;9696;53.686;10.094;2024-01-30T03:09:51;11.57;;;5.00;;
19127;SDS011;9696;53.686;10.094;2024-01-30T03:12:22;14.33;;;5.10;;
19127;SDS011;9696;53.686;10.094;2024-01-30T03:14:52;7.50;;;4.23;;
19127;SDS011;9696;53.686;10.094;2024-01-30T03:17:20;8.13;;;4.53;;
19127;SDS011;9696;53.686;10.094;2024-01-30T03:19:50;6.10;;;3.87;;
19127;SDS011;9696;53.686;10.094;2024-01-30T03:22:19;6.90;;;4.20;;
19127;SDS011;9696;53.686;10.094;2024-01-30T03:24:47;7.20;;;4.47;;
19127;SDS011;9696;53.686;10.094;2024-01-30T03:27:16;12.10;;;4.60;;
19127;SDS011;9696;53.686;10.094;2024-01-30T03:29:44;9.40;;;4.67;;
19127;SDS011;9696;53.686;10.094;2024-01-30T03:32:14;9.57;;;5.20;;
19127;SDS011;9696;53.686;10.094;2024-01-30T03:34:43;8.03;;;4.90;;
19127;SDS011;9696;53.686;10.094;2024-01-30T03:37:12;8.83;;;5.10;;
19127;SDS011;9696;53.686;10.094;2024-01-30T03:39:40;9.13;;;5.10;;
19127;SDS011;9696;53.686;10.094;2024-01-30T03:42:09;10.80;;;4.87;;
19127;SDS011;9696;53.686;10.094;2024-01-30T03:44:37;8.03;;;4.67;;
19127;SDS011;9696;53.686;10.094;2024-01-30T03:47:06;8.77;;;4.80;;
19127;SDS011;9696;53.686;10.094;2024-01-30T03:49:36;9.70;;;5.30;;
19127;SDS011;9696;53.686;10.094;2024-01-30T03:52:04;11.20;;;5.47;;
19127;SDS011;9696;53.686;10.094;2024-01-30T03:54:33;8.03;;;4.73;;
19127;SDS011;9696;53.686;10.094;2024-01-30T03:57:02;9.43;;;5.10;;
19127;SDS011;9696;53.686;10.094;2024-01-30T03:59:30;11.20;;;4.80;;
19127;SDS011;9696;53.686;10.094;2024-01-30T04:01:59;11.90;;;5.97;;
19127;SDS011;9696;53.686;10.094;2024-01-30T04:04:28;10.40;;;5.53;;
19127;SDS011;9696;53.686;10.094;2024-01-30T04:06:58;11.80;;;5.37;;
19127;SDS011;9696;53.686;10.094;2024-01-30T04:09:26;8.53;;;5.00;;
19127;SDS011;9696;53.686;10.094;2024-01-30T04:11:55;9.23;;;4.57;;
19127;SDS011;9696;53.686;10.094;2024-01-30T04:14:24;9.47;;;5.10;;
19127;SDS011;9696;53.686;10.094;2024-01-30T04:16:52;9.80;;;5.60;;
19127;SDS011;9696;53.686;10.094;2024-01-30T04:19:21;7.43;;;4.63;;
19127;SDS011;9696;53.686;10.094;2024-01-30T04:21:49;8.37;;;4.67;;
19127;SDS011;9696;53.686;10.094;2024-01-30T04:24:19;10.63;;;4.87;;
19127;SDS011;9696;53.686;10.094;2024-01-30T04:26:48;11.73;;;4.93;;
19127;SDS011;9696;53.686;10.094;2024-01-30T04:29:16;7.60;;;4.93;;
19127;SDS011;9696;53.686;10.094;2024-01-30T04:31:46;8.23;;;4.83;;
19127;SDS011;9696;53.686;10.094;2024-01-30T04:34:14;11.90;;;5.27;;
19127;SDS011;9696;53.686;10.094;2024-01-30T04:36:43;10.17;;;5.47;;
19127;SDS011;9696;53.686;10.094;2024-01-30T04:39:12;7.97;;;4.87;;
19127;SDS011;9696;53.686;10.094;2024-01-30T04:41:42;12.27;;;5.37;;
19127;SDS011;9696;53.686;10.094;2024-01-30T04:44:11;11.57;;;5.77;;
19127;SDS011;9696;53.686;10.094;2024-01-30T04:46:39;9.57;;;5.00;;
19127;SDS011;9696;53.686;10.094;2024-01-30T04:49:08;7.40;;;5.23;;
19127;SDS011;9696;53.686;10.094;2024-01-30T04:51:37;8.80;;;5.80;;
19127;SDS011;9696;53.686;10.094;2024-01-30T04:54:05;11.63;;;5.57;;
19127;SDS011;9696;53.686;10.094;2024-01-30T04:56:34;9.67;;;5.97;;
19127;SDS011;9696;53.686;10.094;2024-01-30T04:59:04;10.53;;;5.90;;
19127;SDS011;9696;53.686;10.094;2024-01-30T05:01:31;8.37;;;5.20;;
19127;SDS011;9696;53.686;10.094;2024-01-30T05:04:00;13.20;;;5.87;;
19127;SDS011;9696;53.686;10.094;2024-01-30T05:06:30;8.10;;;4.87;;
19127;SDS011;9696;53.686;10.094;2024-01-30T05:08:58;8.73;;;5.03;;
19127;SDS011;9696;53.686;10.094;2024-01-30T05:11:27;13.90;;;6.13;;
19127;SDS011;9696;53.686;10.094;2024-01-30T05:13:55;10.57;;;5.67;;
19127;SDS011;9696;53.686;10.094;2024-01-30T05:16:25;10.23;;;5.47;;
19127;SDS011;9696;53.686;10.094;2024-01-30T05:18:54;12.00;;;5.50;;
19127;SDS011;9696;53.686;10.094;2024-01-30T05:21:25;11.13;;;5.70;;
19127;SDS011;9696;53.686;10.094;2024-01-30T05:23:53;8.60;;;5.20;;
19127;SDS011;9696;53.686;10.094;2024-01-30T05:26:22;9.90;;;5.30;;
19127;SDS011;9696;53.686;10.094;2024-01-30T05:28:51;8.97;;;5.53;;
19127;SDS011;9696;53.686;10.094;2024-01-30T05:31:19;10.40;;;5.63;;
19127;SDS011;9696;53.686;10.094;2024-01-30T05:33:49;11.40;;;5.13;;
19127;SDS011;9696;53.686;10.094;2024-01-30T05:36:18;13.10;;;6.07;;
19127;SDS011;9696;53.686;10.094;2024-01-30T05:38:47;9.03;;;5.67;;
19127;SDS011;9696;53.686;10.094;2024-01-30T05:41:15;10.03;;;5.60;;
19127;SDS011;9696;53.686;10.094;2024-01-30T05:43:44;9.50;;;6.00;;
19127;SDS011;9696;53.686;10.094;2024-01-30T05:46:13;11.07;;;6.00;;
19127;SDS011;9696;53.686;10.094;2024-01-30T05:48:41;12.23;;;6.00;;
19127;SDS011;9696;53.686;10.094;2024-01-30T05:51:11;11.80;;;5.83;;
19127;SDS011;9696;53.686;10.094;2024-01-30T05:53:40;11.83;;;6.70;;
19127;SDS011;9696;53.686;10.094;2024-01-30T05:56:08;12.87;;;6.23;;
19127;SDS011;9696;53.686;10.094;2024-01-30T05:58:37;10.40;;;5.10;;
19127;SDS011;9696;53.686;10.094;2024-01-30T06:01:06;11.40;;;5.97;;
19127;SDS011;9696;53.686;10.094;2024-01-30T06:03:36;8.83;;;5.27;;
19127;SDS011;9696;53.686;10.094;2024-01-30T06:06:05;10.93;;;6.10;;
19127;SDS011;9696;53.686;10.094;2024-01-30T06:08:35;12.57;;;6.23;;
19127;SDS011;9696;53.686;10.094;2024-01-30T06:11:03;11.33;;;6.47;;
19127;SDS011;9696;53.686;10.094;2024-01-30T06:13:32;9.63;;;5.27;;
19127;SDS011;9696;53.686;10.094;2024-01-30T06:16:01;9.23;;;6.13;;
19127;SDS011;9696;53.686;10.094;2024-01-30T06:18:29;8.67;;;5.40;;
19127;SDS011;9696;53.686;10.094;2024-01-30T06:20:58;11.83;;;5.93;;
19127;SDS011;9696;53.686;10.094;2024-01-30T06:23:26;13.63;;;5.87;;
19127;SDS011;9696;53.686;10.094;2024-01-30T06:25:56;11.73;;;5.73;;
19127;SDS011;9696;53.686;10.094;2024-01-30T06:28:25;11.57;;;7.03;;
19127;SDS011;9696;53.686;10.094;2024-01-30T06:30:54;11.67;;;6.10;;
19127;SDS011;9696;53.686;10.094;2024-01-30T06:33:22;10.90;;;6.47;;
19127;SDS011;9696;53.686;10.094;2024-01-30T06:35:51;11.30;;;5.73;;
19127;SDS011;9696;53.686;10.094;2024-01-30T06:38:19;18.50;;;7.47;;
19127;SDS011;9696;53.686;10.094;2024-01-30T06:40:48;11.93;;;6.47;;
19127;SDS011;9696;53.686;10.094;2024-01-30T06:43:18;14.43;;;7.67;;
19127;SDS011;9696;53.686;10.094;2024-01-30T06:45:46;13.43;;;6.87;;
19127;SDS011;9696;53.686;10.094;2024-01-30T06:48:18;12.07;;;6.53;;
19127;SDS011;9696;53.686;10.094;2024-01-30T06:50:47;11.20;;;6.20;;
19127;SDS011;9696;53.686;10.094;2024-01-30T06:53:16;10.53;;;6.27;;
19127;SDS011;9696;53.686;10.094;2024-01-30T06:55:44;12.13;;;6.63;;
19127;SDS011;9696;53.686;10.094;2024-01-30T06:58:13;11.77;;;7.00;;
19127;SDS011;9696;53.686;10.094;2024-01-30T07:00:43;11.60;;;6.90;;
19127;SDS011;9696;53.686;10.094;2024-01-30T07:03:12;14.37;;;6.93;;
19127;SDS011;9696;53.686;10.094;2024-01-30T07:05:40;10.27;;;6.43;;
19127;SDS011;9696;53.686;10.094;2024-01-30T07:08:09;12.93;;;6.40;;
19127;SDS011;9696;53.686;10.094;2024-01-30T07:10:37;10.80;;;6.27;;
19127;SDS011;9696;53.686;10.094;2024-01-30T07:13:06;11.27;;;6.13;;
19127;SDS011;9696;53.686;10.094;2024-01-30T07:15:36;12.10;;;6.83;;
19127;SDS011;9696;53.686;10.094;2024-01-30T07:18:06;10.23;;;6.30;;
19127;SDS011;9696;53.686;10.094;2024-01-30T07:20:36;10.63;;;6.13;;
19127;SDS011;9696;53.686;10.094;2024-01-30T07:23:08;13.10;;;7.07;;
19127;SDS011;9696;53.686;10.094;2024-01-30T07:25:40;10.17;;;6.20;;
19127;SDS011;9696;53.686;10.094;2024-01-30T07:28:09;14.60;;;6.40;;
19127;SDS011;9696;53.686;10.094;2024-01-30T07:30:38;12.27;;;6.70;;
19127;SDS011;9696;53.686;10.094;2024-01-30T07:33:08;12.30;;;6.00;;
19127;SDS011;9696;53.686;10.094;2024-01-30T07:35:37;10.17;;;6.47;;
19127;SDS011;9696;53.686;10.094;2024-01-30T07:38:06;13.37;;;7.67;;
19127;SDS011;9696;53.686;10.094;2024-01-30T07:40:34;22.07;;;7.27;;
19127;SDS011;9696;53.686;10.094;2024-01-30T07:43:03;14.50;;;6.97;;
19127;SDS011;9696;53.686;10.094;2024-01-30T07:45:32;13.37;;;6.30;;
19127;SDS011;9696;53.686;10.094;2024-01-30T07:48:01;13.00;;;7.27;;
19127;SDS011;9696;53.686;10.094;2024-01-30T07:50:31;12.77;;;7.13;;
19127;SDS011;9696;53.686;10.094;2024-01-30T07:53:00;12.60;;;6.87;;
19127;SDS011;9696;53.686;10.094;2024-01-30T07:55:28;11.60;;;6.77;;
19127;SDS011;9696;53.686;10.094;2024-01-30T07:57:59;11.50;;;7.03;;
19127;SDS011;9696;53.686;10.094;2024-01-30T08:00:28;14.33;;;7.87;;
19127;SDS011;9696;53.686;10.094;2024-01-30T08:02:56;13.60;;;7.53;;
19127;SDS011;9696;53.686;10.094;2024-01-30T08:05:25;11.33;;;6.73;;
19127;SDS011;9696;53.686;10.094;2024-01-30T08:07:55;16.53;;;7.97;;
19127;SDS011;9696;53.686;10.094;2024-01-30T08:10:24;14.30;;;7.43;;
19127;SDS011;9696;53.686;10.094;2024-01-30T08:12:53;15.37;;;7.80;;
19127;SDS011;9696;53.686;10.094;2024-01-30T08:15:21;14.77;;;7.33;;
19127;SDS011;9696;53.686;10.094;2024-01-30T08:17:50;12.97;;;7.33;;
19127;SDS011;9696;53.686;10.094;2024-01-30T08:20:22;15.03;;;8.33;;
19127;SDS011;9696;53.686;10.094;2024-01-30T08:22:51;20.93;;;8.80;;
19127;SDS011;9696;53.686;10.094;2024-01-30T08:25:21;13.10;;;7.03;;
19127;SDS011;9696;53.686;10.094;2024-01-30T08:27:49;14.40;;;7.13;;
19127;SDS011;9696;53.686;10.094;2024-01-30T08:30:18;12.47;;;6.83;;
19127;SDS011;9696;53.686;10.094;2024-01-30T08:32:47;14.07;;;7.73;;
19127;SDS011;9696;53.686;10.094;2024-01-30T08:35:15;14.07;;;7.70;;
19127;SDS011;9696;53.686;10.094;2024-01-30T08:37:44;10.47;;;6.60;;
19127;SDS011;9696;53.686;10.094;2024-01-30T08:40:13;12.27;;;7.47;;
19127;SDS011;9696;53.686;10.094;2024-01-30T08:42:43;12.00;;;7.30;;
19127;SDS011;9696;53.686;10.094;2024-01-30T08:45:11;14.50;;;7.43;;
19127;SDS011;9696;53.686;10.094;2024-01-30T08:47:40;13.73;;;8.60;;
19127;SDS011;9696;53.686;10.094;2024-01-30T08:50:09;13.30;;;7.77;;
19127;SDS011;9696;53.686;10.094;2024-01-30T08:52:37;15.33;;;8.07;;
19127;SDS011;9696;53.686;10.094;2024-01-30T08:55:06;17.23;;;8.00;;
19127;SDS011;9696;53.686;10.094;2024-01-30T08:57:37;12.03;;;7.50;;
19127;SDS011;9696;53.686;10.094;2024-01-30T09:00:07;12.93;;;7.77;;
19127;SDS011;9696;53.686;10.094;2024-01-30T09:02:36;12.27;;;7.37;;
19127;SDS011;9696;53.686;10.094;2024-01-30T09:05:05;16.23;;;8.13;;
19127;SDS011;9696;53.686;10.094;2024-01-30T09:07:34;12.97;;;7.00;;
19127;SDS011;9696;53.686;10.094;2024-01-30T09:10:03;10.67;;;7.33;;
19127;SDS011;9696;53.686;10.094;2024-01-30T09:12:32;13.67;;;7.67;;
19127;SDS011;9696;53.686;10.094;2024-01-30T09:15:01;12.97;;;8.67;;
19127;SDS011;9696;53.686;10.094;2024-01-30T09:17:30;12.53;;;7.60;;
19127;SDS011;9696;53.686;10.094;2024-01-30T09:19:59;13.77;;;7.57;;
19127;SDS011;9696;53.686;10.094;2024-01-30T09:22:28;10.30;;;6.80;;
19127;SDS011;9696;53.686;10.094;2024-01-30T09:24:58;20.20;;;7.83;;
19127;SDS011;9696;53.686;10.094;2024-01-30T09:27:26;11.53;;;6.93;;
19127;SDS011;9696;53.686;10.094;2024-01-30T09:29:55;17.93;;;7.77;;
19127;SDS011;9696;53.686;10.094;2024-01-30T09:32:23;13.63;;;7.43;;
19127;SDS011;9696;53.686;10.094;2024-01-30T09:34:54;10.63;;;6.23;;
19127;SDS011;9696;53.686;10.094;2024-01-30T09:37:23;13.07;;;6.67;;
19127;SDS011;9696;53.686;10.094;2024-01-30T09:39:53;11.63;;;7.00;;
19127;SDS011;9696;53.686;10.094;2024-01-30T09:42:25;12.60;;;7.13;;
19127;SDS011;9696;53.686;10.094;2024-01-30T09:44:55;9.93;;;5.93;;
19127;SDS011;9696;53.686;10.094;2024-01-30T09:47:24;11.90;;;6.67;;
19127;SDS011;9696;53.686;10.094;2024-01-30T09:49:55;13.37;;;6.43;;
19127;SDS011;9696;53.686;10.094;2024-01-30T09:52:24;12.30;;;6.63;;
19127;SDS011;9696;53.686;10.094;2024-01-30T09:54:52;14.13;;;6.53;;
19127;SDS011;9696;53.686;10.094;2024-01-30T09:57:21;12.40;;;6.80;;
19127;SDS011;9696;53.686;10.094;2024-01-30T09:59:50;16.87;;;7.97;;
19127;SDS011;9696;53.686;10.094;2024-01-30T10:02:20;13.20;;;7.23;;
19127;SDS011;9696;53.686;10.094;2024-01-30T10:04:50;13.70;;;6.60;;
19127;SDS011;9696;53.686;10.094;2024-01-30T10:07:20;10.47;;;6.53;;
19127;SDS011;9696;53.686;10.094;2024-01-30T10:09:50;14.47;;;6.83;;
19127;SDS011;9696;53.686;10.094;2024-01-30T10:12:19;10.60;;;6.10;;
19127;SDS011;9696;53.686;10.094;2024-01-30T10:14:48;10.23;;;6.70;;
19127;SDS011;9696;53.686;10.094;2024-01-30T10:17:17;11.53;;;6.30;;
19127;SDS011;9696;53.686;10.094;2024-01-30T10:19:59;13.57;;;6.90;;
19127;SDS011;9696;53.686;10.094;2024-01-30T10:22:29;12.90;;;7.40;;
19127;SDS011;9696;53.686;10.094;2024-01-30T10:24:58;10.37;;;6.43;;
19127;SDS011;9696;53.686;10.094;2024-01-30T10:27:32;9.63;;;5.67;;
19127;SDS011;9696;53.686;10.094;2024-01-30T10:30:00;10.77;;;6.53;;
19127;SDS011;9696;53.686;10.094;2024-01-30T10:32:30;11.97;;;6.20;;
19127;SDS011;9696;53.686;10.094;2024-01-30T10:34:59;13.27;;;7.53;;
19127;SDS011;9696;53.686;10.094;2024-01-30T10:37:29;11.00;;;6.47;;
19127;SDS011;9696;53.686;10.094;2024-01-30T10:40:01;13.27;;;7.27;;
19127;SDS011;9696;53.686;10.094;2024-01-30T10:42:32;13.20;;;6.80;;
19127;SDS011;9696;53.686;10.094;2024-01-30T10:45:02;11.07;;;5.97;;
19127;SDS011;9696;53.686;10.094;2024-01-30T10:47:35;12.47;;;6.77;;
19127;SDS011;9696;53.686;10.094;2024-01-30T10:50:04;11.27;;;6.07;;
19127;SDS011;9696;53.686;10.094;2024-01-30T10:52:35;12.20;;;6.53;;
19127;SDS011;9696;53.686;10.094;2024-01-30T10:55:04;11.27;;;6.80;;
19127;SDS011;9696;53.686;10.094;2024-01-30T10:57:34;9.23;;;6.17;;
19127;SDS011;9696;53.686;10.094;2024-01-30T11:00:04;12.87;;;6.50;;
19127;SDS011;9696;53.686;10.094;2024-01-30T11:02:37;10.60;;;6.03;;
19127;SDS011;9696;53.686;10.094;2024-01-30T11:05:06;10.70;;;6.30;;
19127;SDS011;9696;53.686;10.094;2024-01-30T11:07:38;10.00;;;5.40;;
19127;SDS011;9696;53.686;10.094;2024-01-30T11:10:07;19.43;;;6.33;;
19127;SDS011;9696;53.686;10.094;2024-01-30T11:12:40;9.67;;;6.20;;
19127;SDS011;9696;53.686;10.094;2024-01-30T11:15:12;11.23;;;6.37;;
19127;SDS011;9696;53.686;10.094;2024-01-30T11:17:45;10.97;;;6.00;;
19127;SDS011;9696;53.686;10.094;2024-01-30T11:20:14;15.67;;;7.10;;
19127;SDS011;9696;53.686;10.094;2024-01-30T11:25:16;13.03;;;6.77;;
19127;SDS011;9696;53.686;10.094;2024-01-30T11:27:45;12.33;;;6.03;;
19127;SDS011;9696;53.686;10.094;2024-01-30T11:30:20;14.57;;;6.40;;
19127;SDS011;9696;53.686;10.094;2024-01-30T11:32:59;9.53;;;5.87;;
19127;SDS011;9696;53.686;10.094;2024-01-30T11:35:30;18.73;;;6.77;;
19127;SDS011;9696;53.686;10.094;2024-01-30T11:37:59;10.63;;;6.23;;
19127;SDS011;9696;53.686;10.094;2024-01-30T11:40:29;10.77;;;6.43;;
19127;SDS011;9696;53.686;10.094;2024-01-30T11:43:00;11.53;;;5.90;;
19127;SDS011;9696;53.686;10.094;2024-01-30T11:45:29;15.23;;;6.67;;
19127;SDS011;9696;53.686;10.094;2024-01-30T11:47:58;17.50;;;6.10;;
19127;SDS011;9696;53.686;10.094;2024-01-30T11:50:30;13.53;;;6.40;;
19127;SDS011;9696;53.686;10.094;2024-01-30T11:52:58;10.70;;;6.13;;
19127;SDS011;9696;53.686;10.094;2024-01-30T11:55:29;11.17;;;6.20;;
19127;SDS011;9696;53.686;10.094;2024-01-30T11:58:01;11.30;;;6.30;;
19127;SDS011;9696;53.686;10.094;2024-01-30T12:00:30;11.13;;;6.23;;
19127;SDS011;9696;53.686;10.094;2024-01-30T12:03:01;12.60;;;6.20;;
19127;SDS011;9696;53.686;10.094;2024-01-30T12:05:31;9.37;;;5.50;;
19127;SDS011;9696;53.686;10.094;2024-01-30T12:07:59;13.50;;;6.33;;
19127;SDS011;9696;53.686;10.094;2024-01-30T12:10:30;18.30;;;6.20;;
19127;SDS011;9696;53.686;10.094;2024-01-30T12:13:00;9.50;;;5.43;;
19127;SDS011;9696;53.686;10.094;2024-01-30T12:15:30;11.83;;;6.43;;
19127;SDS011;9696;53.686;10.094;2024-01-30T12:18:08;10.93;;;6.03;;
19127;SDS011;9696;53.686;10.094;2024-01-30T12:20:36;16.67;;;6.80;;
19127;SDS011;9696;53.686;10.094;2024-01-30T12:23:05;12.73;;;5.77;;
19127;SDS011;9696;53.686;10.094;2024-01-30T12:25:36;12.63;;;6.50;;
19127;SDS011;9696;53.686;10.094;2024-01-30T12:28:05;12.37;;;5.77;;
19127;SDS011;9696;53.686;10.094;2024-01-30T12:30:34;10.80;;;5.87;;
19127;SDS011;9696;53.686;10.094;2024-01-30T12:33:03;13.10;;;5.73;;
19127;SDS011;9696;53.686;10.094;2024-01-30T12:35:35;12.30;;;6.37;;
19127;SDS011;9696;53.686;10.094;2024-01-30T12:38:14;14.47;;;6.97;;
19127;SDS011;9696;53.686;10.094;2024-01-30T12:40:44;10.77;;;6.00;;
19127;SDS011;9696;53.686;10.094;2024-01-30T12:43:13;9.37;;;6.10;;
19127;SDS011;9696;53.686;10.094;2024-01-30T12:45:57;13.97;;;6.87;;
19127;SDS011;9696;53.686;10.094;2024-01-30T12:48:27;10.60;;;6.33;;
19127;SDS011;9696;53.686;10.094;2024-01-30T12:50:56;12.60;;;6.57;;
19127;SDS011;9696;53.686;10.094;2024-01-30T12:53:25;11.33;;;6.30;;
19127;SDS011;9696;53.686;10.094;2024-01-30T12:55:55;11.77;;;6.00;;
19127;SDS011;9696;53.686;10.094;2024-01-30T12:58:24;14.53;;;6.30;;
19127;SDS011;9696;53.686;10.094;2024-01-30T13:00:53;11.17;;;6.50;;
19127;SDS011;9696;53.686;10.094;2024-01-30T13:03:22;9.67;;;6.27;;
19127;SDS011;9696;53.686;10.094;2024-01-30T13:05:51;10.30;;;6.30;;
19127;SDS011;9696;53.686;10.094;2024-01-30T13:08:19;11.20;;;5.53;;
19127;SDS011;9696;53.686;10.094;2024-01-30T13:10:48;11.43;;;5.63;;
19127;SDS011;9696;53.686;10.094;2024-01-30T13:13:18;8.57;;;5.67;;
19127;SDS011;9696;53.686;10.094;2024-01-30T13:15:47;12.67;;;5.63;;
19127;SDS011;9696;53.686;10.094;2024-01-30T13:18:16;13.00;;;6.03;;
19127;SDS011;9696;53.686;10.094;2024-01-30T13:20:47;10.57;;;6.00;;
19127;SDS011;9696;53.686;10.094;2024-01-30T13:23:16;11.13;;;5.30;;
19127;SDS011;9696;53.686;10.094;2024-01-30T13:25:46;13.53;;;5.70;;
19127;SDS011;9696;53.686;10.094;2024-01-30T13:28:15;9.47;;;5.87;;
19127;SDS011;9696;53.686;10.094;2024-01-30T13:30:47;13.63;;;5.50;;
19127;SDS011;9696;53.686;10.094;2024-01-30T13:33:17;9.00;;;5.40;;
19127;SDS011;9696;53.686;10.094;2024-01-30T13:35:46;13.53;;;6.03;;
19127;SDS011;9696;53.686;10.094;2024-01-30T13:38:18;14.80;;;5.57;;
19127;SDS011;9696;53.686;10.094;2024-01-30T13:40:47;12.07;;;5.33;;
19127;SDS011;9696;53.686;10.094;2024-01-30T13:43:16;9.50;;;5.40;;
19127;SDS011;9696;53.686;10.094;2024-01-30T13:45:47;9.17;;;5.13;;
19127;SDS011;9696;53.686;10.094;2024-01-30T13:48:16;13.67;;;5.20;;
19127;SDS011;9696;53.686;10.094;2024-01-30T13:50:45;12.20;;;5.63;;
19127;SDS011;9696;53.686;10.094;2024-01-30T13:53:14;10.83;;;5.07;;
19127;SDS011;9696;53.686;10.094;2024-01-30T13:55:43;11.03;;;5.37;;
19127;SDS011;9696;53.686;10.094;2024-01-30T13:58:12;10.83;;;5.80;;
19127;SDS011;9696;53.686;10.094;2024-01-30T14:00:41;12.90;;;5.53;;
19127;SDS011;9696;53.686;10.094;2024-01-30T14:03:11;12.33;;;5.17;;
19127;SDS011;9696;53.686;10.094;2024-01-30T14:05:40;10.77;;;5.67;;
19127;SDS011;9696;53.686;10.094;2024-01-30T14:08:11;10.63;;;6.03;;
19127;SDS011;9696;53.686;10.094;2024-01-30T14:10:40;11.53;;;6.03;;
19127;SDS011;9696;53.686;10.094;2024-01-30T14:13:09;12.97;;;5.60;;
19127;SDS011;9696;53.686;10.094;2024-01-30T14:15:38;11.50;;;5.33;;
19127;SDS011;9696;53.686;10.094;2024-01-30T14:18:07;19.50;;;5.80;;
19127;SDS011;9696;53.686;10.094;2024-01-30T14:20:39;9.20;;;6.07;;
19127;SDS011;9696;53.686;10.094;2024-01-30T14:23:07;13.17;;;5.97;;
19127;SDS011;9696;53.686;10.094;2024-01-30T14:25:36;16.33;;;5.93;;
19127;SDS011;9696;53.686;10.094;2024-01-30T14:28:05;9.90;;;5.80;;
19127;SDS011;9696;53.686;10.094;2024-01-30T14:30:34;12.67;;;5.30;;
19127;SDS011;9696;53.686;10.094;2024-01-30T14:33:03;13.73;;;5.60;;
19127;SDS011;9696;53.686;10.094;2024-01-30T14:35:32;16.67;;;6.67;;
19127;SDS011;9696;53.686;10.094;2024-01-30T14:38:02;10.50;;;6.00;;
19127;SDS011;9696;53.686;10.094;2024-01-30T14:40:34;16.17;;;5.50;;
19127;SDS011;9696;53.686;10.094;2024-01-30T14:43:03;11.90;;;5.97;;
19127;SDS011;9696;53.686;10.094;2024-01-30T14:45:31;15.30;;;5.80;;
19127;SDS011;9696;53.686;10.094;2024-01-30T14:48:00;18.83;;;6.73;;
19127;SDS011;9696;53.686;10.094;2024-01-30T14:50:29;12.13;;;5.80;;
19127;SDS011;9696;53.686;10.094;2024-01-30T14:52:57;12.10;;;6.17;;